createdAt,value
2023-06-29T00:01:55.514Z,91.99
2023-06-29T00:04:37.634Z,92.03
2023-06-29T00:07:20.195Z,91.88
2023-06-29T00:09:54.252Z,91.72
2023-06-29T00:12:26.807Z,91.76
2023-06-29T00:15:10.882Z,91.54
2023-06-29T00:17:56.452Z,91.52
2023-06-29T00:20:29.870Z,91.56
2023-06-29T00:23:02.405Z,92.02
2023-06-29T00:25:48.434Z,92.29
2023-06-29T00:28:32.869Z,92.27
2023-06-29T00:31:05.993Z,92.02
2023-06-29T00:33:49.758Z,92.03
2023-06-29T00:36:22.470Z,91.51
2023-06-29T00:39:06.765Z,91.39
2023-06-29T00:41:39.378Z,91.28
2023-06-29T00:44:26.363Z,91.83
2023-06-29T00:46:59.176Z,91.50
2023-06-29T00:49:41.942Z,91.63
2023-06-29T00:52:14.572Z,91.30
2023-06-29T00:54:59.845Z,91.16
2023-06-29T00:57:33.844Z,91.16
2023-06-29T01:00:16.771Z,91.39
2023-06-29T01:02:50.259Z,91.14
2023-06-29T01:05:35.187Z,91.49
2023-06-29T01:08:16.606Z,91.20
2023-06-29T01:11:00.695Z,91.34
2023-06-29T01:13:34.802Z,91.15
2023-06-29T01:16:38.463Z,91.51
2023-06-29T01:19:14.032Z,91.41
2023-06-29T01:22:11.457Z,91.85
2023-06-29T01:24:44.127Z,93.06
2023-06-29T01:27:28.504Z,93.54
2023-06-29T01:30:14.749Z,93.27
2023-06-29T01:32:47.208Z,93.36
2023-06-29T01:35:32.443Z,93.61
2023-06-29T01:38:08.699Z,93.21
2023-06-29T01:40:55.974Z,92.88
2023-06-29T01:43:30.969Z,92.43
2023-06-29T01:46:04.134Z,92.52
2023-06-29T01:48:48.663Z,92.94
2023-06-29T01:51:21.807Z,92.51
2023-06-29T01:54:05.795Z,92.23
2023-06-29T01:56:38.314Z,92.16
2023-06-29T01:59:20.520Z,92.49
2023-06-29T02:02:06.262Z,92.43
2023-06-29T02:04:48.823Z,92.57
2023-06-29T02:07:21.293Z,92.64
2023-06-29T02:10:04.460Z,92.97
2023-06-29T02:12:37.195Z,92.99
2023-06-29T02:15:20.065Z,92.64
2023-06-29T02:17:52.808Z,92.53
2023-06-29T02:20:36.556Z,92.74
2023-06-29T02:23:09.438Z,92.60
2023-06-29T02:25:51.976Z,92.60
2023-06-29T02:28:24.555Z,92.51
2023-06-29T02:31:09.819Z,92.75
2023-06-29T02:33:43.431Z,92.50
2023-06-29T02:36:16.726Z,92.19
2023-06-29T02:39:00.990Z,92.12
2023-06-29T02:41:33.686Z,91.88
2023-06-29T02:44:16.328Z,91.49
2023-06-29T02:47:00.693Z,90.93
2023-06-29T02:49:34.841Z,89.79
2023-06-29T02:52:17.817Z,90.63
2023-06-29T02:55:01.048Z,90.91
2023-06-29T02:57:35.013Z,91.15
2023-06-29T03:00:18.433Z,90.85
2023-06-29T03:02:51.675Z,90.16
2023-06-29T03:05:36.064Z,90.60
2023-06-29T03:08:20.261Z,90.20
2023-06-29T03:10:53.263Z,89.66
2023-06-29T03:13:37.533Z,89.38
2023-06-29T03:16:19.970Z,89.58
2023-06-29T03:18:52.512Z,87.78
2023-06-29T03:21:35.485Z,87.39
2023-06-29T03:24:17.673Z,87.57
2023-06-29T03:26:53.664Z,85.49
2023-06-29T03:29:37.309Z,85.99
2023-06-29T03:32:11.084Z,86.38
2023-06-29T03:34:53.469Z,86.75
2023-06-29T03:37:39.237Z,85.27
2023-06-29T03:40:21.744Z,84.51
2023-06-29T03:42:54.547Z,85.06
2023-06-29T03:45:28.031Z,83.85
2023-06-29T03:48:02.701Z,83.75
2023-06-29T03:50:36.482Z,82.49
2023-06-29T03:53:19.239Z,80.82
2023-06-29T03:55:52.254Z,80.01
2023-06-29T03:58:37.021Z,78.61
2023-06-29T04:01:10.414Z,77.90
2023-06-29T04:03:56.289Z,78.89
2023-06-29T04:06:28.813Z,78.67
2023-06-29T04:09:13.422Z,78.85
2023-06-29T04:11:47.728Z,78.86
2023-06-29T04:14:31.589Z,78.45
2023-06-29T04:17:04.632Z,77.54
2023-06-29T04:19:47.237Z,78.26
2023-06-29T04:22:30.355Z,77.77
2023-06-29T04:25:02.857Z,75.16
2023-06-29T04:27:45.731Z,73.77
2023-06-29T04:30:19.499Z,72.68
2023-06-29T04:33:04.609Z,73.20
2023-06-29T04:35:48.158Z,73.25
2023-06-29T04:38:22.780Z,72.63
2023-06-29T04:41:05.974Z,73.49
2023-06-29T04:43:52.072Z,73.89
2023-06-29T04:46:41.122Z,72.85
2023-06-29T04:49:27.320Z,72.72
2023-06-29T04:52:13.732Z,72.91
2023-06-29T04:54:46.766Z,75.03
2023-06-29T04:57:32.698Z,74.56
2023-06-29T05:00:09.425Z,73.70
2023-06-29T05:02:54.234Z,72.36
2023-06-29T05:05:27.072Z,71.39
2023-06-29T05:08:09.844Z,71.50
2023-06-29T05:10:54.183Z,71.20
2023-06-29T05:13:37.619Z,71.04
2023-06-29T05:16:10.676Z,70.27
2023-06-29T05:18:55.361Z,70.43
2023-06-29T05:21:38.867Z,70.43
2023-06-29T05:24:12.466Z,69.73
2023-06-29T05:26:56.472Z,69.03
2023-06-29T05:29:30.666Z,66.88
2023-06-29T05:32:14.605Z,67.11
2023-06-29T05:34:47.438Z,64.52
2023-06-29T05:37:31.147Z,63.46
2023-06-29T05:40:14.569Z,61.47
2023-06-29T05:42:47.176Z,60.16
2023-06-29T05:45:31.980Z,60.45
2023-06-29T05:48:05.016Z,58.55
2023-06-29T05:50:39.087Z,56.77
2023-06-29T05:53:13.398Z,55.93
2023-06-29T05:55:56.577Z,55.63
2023-06-29T05:58:30.640Z,53.72
2023-06-29T06:01:15.207Z,54.06
2023-06-29T06:04:00.842Z,53.34
2023-06-29T06:06:43.682Z,52.17
2023-06-29T06:09:16.775Z,50.92
2023-06-29T06:11:59.602Z,52.32
2023-06-29T06:14:32.810Z,50.97
2023-06-29T06:17:16.989Z,51.97
2023-06-29T06:19:49.855Z,51.09
2023-06-29T06:22:33.766Z,52.20
2023-06-29T06:25:06.820Z,50.90
2023-06-29T06:27:51.888Z,50.77
2023-06-29T06:30:41.036Z,51.48
2023-06-29T06:33:15.586Z,50.70
2023-06-29T06:35:58.657Z,51.45
2023-06-29T06:38:50.245Z,51.90
2023-06-29T06:41:18.097Z,51.66
2023-06-29T06:44:03.565Z,52.52
2023-06-29T06:46:47.988Z,53.83
2023-06-29T06:49:22.051Z,52.03
2023-06-29T06:51:55.238Z,51.36
2023-06-29T06:54:39.674Z,51.33
2023-06-29T06:57:23.219Z,51.18
2023-06-29T06:59:56.768Z,51.11
2023-06-29T07:02:41.414Z,52.23
2023-06-29T07:05:14.736Z,52.77
2023-06-29T07:07:57.666Z,53.73
2023-06-29T07:10:31.727Z,54.01
2023-06-29T07:13:05.389Z,53.71
2023-06-29T07:15:50.369Z,53.89
2023-06-29T07:18:40.549Z,53.15
2023-06-29T07:26:31.514Z,53.09
2023-06-29T07:29:06.058Z,52.13
2023-06-29T07:31:49.227Z,52.54
2023-06-29T07:34:24.313Z,52.31
2023-06-29T07:37:10.147Z,52.28
2023-06-29T07:39:54.903Z,51.72
2023-06-29T07:42:41.224Z,52.03
2023-06-29T07:45:15.036Z,51.50
2023-06-29T07:47:47.416Z,52.11
2023-06-29T07:50:51.105Z,51.40
2023-06-29T07:53:24.150Z,51.27
2023-06-29T07:56:06.742Z,51.20
2023-06-29T07:58:53.461Z,50.90
2023-06-29T08:01:42.574Z,50.29
2023-06-29T08:07:02.585Z,47.96
2023-06-29T08:09:48.439Z,47.96
2023-06-29T08:12:32.384Z,47.42
2023-06-29T08:15:05.541Z,46.82
2023-06-29T08:17:49.748Z,47.07
2023-06-29T08:20:24.149Z,45.71
2023-06-29T08:23:08.647Z,46.68
2023-06-29T08:25:41.145Z,44.33
2023-06-29T08:28:25.214Z,44.15
2023-06-29T08:30:57.996Z,42.38
2023-06-29T08:33:42.748Z,41.77
2023-06-29T08:36:15.522Z,39.78
2023-06-29T08:38:57.935Z,40.35
2023-06-29T08:41:42.852Z,40.29
2023-06-29T08:44:16.517Z,39.20
2023-06-29T08:47:03.485Z,39.29
2023-06-29T08:49:50.006Z,39.62
2023-06-29T08:52:35.094Z,39.72
2023-06-29T08:55:08.832Z,39.47
2023-06-29T08:57:56.131Z,40.04
2023-06-29T09:00:42.297Z,38.69
2023-06-29T09:03:15.568Z,39.65
2023-06-29T09:05:49.167Z,39.47
2023-06-29T09:08:35.458Z,40.00
2023-06-29T09:11:08.186Z,39.76
2023-06-29T09:13:52.138Z,40.83
2023-06-29T09:16:29.414Z,40.13
2023-06-29T09:19:16.025Z,41.21
2023-06-29T09:21:50.461Z,40.49
2023-06-29T09:24:43.714Z,41.02
2023-06-29T09:27:23.879Z,39.82
2023-06-29T09:29:58.110Z,39.55
2023-06-29T09:32:42.909Z,40.18
2023-06-29T09:35:27.541Z,38.92
2023-06-29T09:38:04.615Z,37.81
2023-06-29T09:40:51.107Z,38.61
2023-06-29T09:43:29.392Z,39.37
2023-06-29T09:46:14.415Z,38.22
2023-06-29T09:51:36.062Z,38.16
2023-06-29T09:54:15.798Z,37.50
2023-06-29T09:57:00.024Z,38.07
2023-06-29T09:59:46.861Z,38.07
2023-06-29T10:02:31.586Z,37.80
2023-06-29T10:05:16.293Z,38.79
2023-06-29T10:07:49.671Z,37.94
2023-06-29T10:10:37.054Z,38.49
2023-06-29T10:13:28.247Z,38.41
2023-06-29T10:16:03.991Z,37.99
2023-06-29T10:18:49.458Z,37.32
2023-06-29T10:21:36.002Z,37.37
2023-06-29T10:24:09.782Z,36.12
2023-06-29T10:27:12.187Z,36.18
2023-06-29T10:29:47.284Z,34.80
2023-06-29T10:32:34.626Z,35.81
2023-06-29T10:35:13.202Z,35.35
2023-06-29T10:37:59.275Z,35.67
2023-06-29T10:40:32.883Z,36.52
2023-06-29T10:43:19.215Z,36.95
2023-06-29T10:45:51.792Z,37.53
2023-06-29T10:48:47.067Z,37.57
2023-06-29T10:51:16.125Z,37.05
2023-06-29T10:53:52.425Z,36.35
2023-06-29T10:56:39.449Z,36.25
2023-06-29T10:59:13.279Z,35.25
2023-06-29T11:02:02.224Z,35.13
2023-06-29T11:04:35.946Z,33.63
2023-06-29T11:07:21.491Z,34.50
2023-06-29T11:10:07.923Z,34.16
2023-06-29T11:12:42.318Z,34.43
2023-06-29T11:15:29.485Z,33.88
2023-06-29T11:18:06.690Z,33.26
2023-06-29T11:20:49.992Z,33.89
2023-06-29T11:23:24.391Z,34.82
2023-06-29T11:26:09.007Z,34.66
2023-06-29T11:28:56.770Z,35.16
2023-06-29T11:31:41.458Z,35.36
2023-06-29T11:34:18.582Z,37.93
2023-06-29T11:39:38.096Z,37.82
2023-06-29T11:42:11.698Z,38.35
2023-06-29T11:45:09.577Z,38.70
2023-06-29T11:47:57.668Z,39.93
2023-06-29T11:50:43.036Z,40.92
2023-06-29T11:53:18.645Z,42.38
2023-06-29T11:56:03.634Z,43.32
2023-06-29T11:58:37.350Z,49.59
2023-06-29T12:01:22.832Z,50.89
2023-06-29T12:03:56.664Z,63.58
2023-06-29T12:06:29.251Z,63.99
2023-06-29T12:09:14.674Z,65.14
2023-06-29T12:11:49.302Z,69.02
2023-06-29T12:14:35.980Z,69.62
2023-06-29T12:20:10.525Z,74.93
2023-06-29T12:22:37.107Z,76.99
2023-06-29T12:25:16.032Z,79.06
2023-06-29T12:28:05.287Z,79.16
2023-06-29T12:30:38.631Z,79.83
2023-06-29T12:33:13.766Z,80.83
2023-06-29T12:35:59.235Z,82.22
2023-06-29T12:38:32.261Z,82.62
2023-06-29T12:41:16.017Z,83.53
2023-06-29T12:43:50.774Z,83.67
2023-06-29T12:46:34.791Z,82.63
2023-06-29T12:49:08.955Z,81.68
2023-06-29T12:51:52.839Z,80.89
2023-06-29T12:54:36.823Z,82.67
2023-06-29T12:57:10.348Z,82.41
2023-06-29T12:59:57.236Z,82.56
2023-06-29T13:02:42.727Z,85.41
2023-06-29T13:05:17.741Z,84.70
2023-06-29T13:08:00.316Z,83.38
2023-06-29T13:10:34.693Z,82.04
2023-06-29T13:13:17.924Z,82.38
2023-06-29T13:16:01.418Z,83.30
2023-06-29T13:18:46.181Z,82.29
2023-06-29T13:21:19.081Z,81.74
2023-06-29T13:24:08.712Z,81.98
2023-06-29T13:26:42.135Z,80.57
2023-06-29T13:29:26.108Z,79.02
2023-06-29T13:31:59.502Z,75.85
2023-06-29T13:34:43.558Z,76.20
2023-06-29T13:37:17.332Z,73.86
2023-06-29T13:40:00.085Z,73.72
2023-06-29T13:42:43.465Z,73.66
2023-06-29T13:45:15.998Z,73.07
2023-06-29T13:48:01.546Z,73.28
2023-06-29T13:50:46.263Z,72.59
2023-06-29T13:53:18.983Z,71.27
2023-06-29T13:56:01.318Z,71.52
2023-06-29T13:58:45.231Z,71.50
2023-06-29T14:01:18.392Z,72.55
2023-06-29T14:04:02.516Z,72.92
2023-06-29T14:06:38.002Z,73.17
2023-06-29T14:09:20.879Z,74.82
2023-06-29T14:11:53.788Z,70.90
2023-06-29T14:14:37.233Z,70.34
2023-06-29T14:17:22.252Z,69.41
2023-06-29T14:20:05.725Z,70.74
2023-06-29T14:22:50.389Z,70.83
2023-06-29T14:25:24.524Z,73.40
2023-06-29T14:28:08.497Z,75.37
2023-06-29T14:30:51.114Z,75.79
2023-06-29T14:33:28.819Z,78.71
2023-06-29T14:36:10.107Z,80.34
2023-06-29T14:38:43.067Z,86.42
2023-06-29T14:41:27.190Z,85.76
2023-06-29T14:44:00.042Z,85.75
2023-06-29T14:46:32.492Z,85.51
2023-06-29T14:49:18.609Z,85.35
2023-06-29T14:51:51.417Z,85.11
2023-06-29T14:54:35.407Z,85.11
2023-06-29T14:57:08.146Z,84.93
2023-06-29T14:59:50.922Z,85.74
2023-06-29T15:02:33.711Z,85.63
2023-06-29T15:05:06.692Z,85.19
2023-06-29T15:07:49.238Z,86.22
2023-06-29T15:10:21.707Z,86.24
2023-06-29T15:12:54.513Z,86.41
2023-06-29T15:15:27.519Z,86.18
2023-06-29T15:18:09.721Z,85.78
2023-06-29T15:20:42.953Z,84.79
2023-06-29T15:23:28.273Z,84.96
2023-06-29T15:26:01.647Z,85.08
2023-06-29T15:28:45.123Z,85.94
2023-06-29T15:31:18.388Z,85.28
2023-06-29T15:34:02.734Z,84.83
2023-06-29T15:36:36.000Z,84.91
2023-06-29T15:39:19.043Z,84.68
2023-06-29T15:41:52.400Z,83.87
2023-06-29T15:44:37.308Z,84.32
2023-06-29T15:47:22.124Z,84.10
2023-06-29T15:49:55.610Z,84.00
2023-06-29T15:52:29.075Z,83.62
2023-06-29T15:55:14.115Z,83.51
2023-06-29T15:57:49.018Z,82.63
2023-06-29T16:00:32.863Z,82.68
2023-06-29T16:03:17.895Z,82.77
2023-06-29T16:06:02.256Z,82.43
2023-06-29T16:08:35.268Z,81.76
2023-06-29T16:11:19.937Z,81.73
2023-06-29T16:13:54.355Z,81.38
2023-06-29T16:16:39.803Z,81.25
2023-06-29T16:19:15.315Z,80.93
2023-06-29T16:22:01.449Z,81.02
2023-06-29T16:24:34.769Z,80.38
2023-06-29T16:27:18.966Z,80.98
2023-06-29T16:29:51.684Z,80.71
2023-06-29T16:32:25.484Z,81.05
2023-06-29T16:35:11.320Z,81.09
2023-06-29T16:37:45.728Z,81.32
2023-06-29T16:40:30.747Z,82.46
2023-06-29T16:43:03.765Z,82.13
2023-06-29T16:45:36.923Z,82.42
2023-06-29T16:48:22.606Z,82.60
2023-06-29T16:50:55.548Z,82.32
2023-06-29T16:53:29.098Z,82.49
2023-06-29T16:56:14.228Z,83.18
2023-06-29T16:58:47.587Z,82.87
2023-06-29T17:01:33.232Z,83.03
2023-06-29T17:04:06.290Z,82.66
2023-06-29T17:06:49.307Z,82.99
2023-06-29T17:09:21.987Z,82.89
2023-06-29T17:12:05.269Z,83.53
2023-06-29T17:14:39.326Z,83.30
2023-06-29T17:17:23.399Z,83.68
2023-06-29T17:20:08.917Z,83.95
2023-06-29T17:22:42.198Z,84.05
2023-06-29T17:25:26.609Z,84.71
2023-06-29T17:28:00.551Z,84.53
2023-06-29T17:34:24.585Z,84.95
2023-06-29T17:36:59.178Z,84.71
2023-06-29T17:39:43.216Z,84.94
2023-06-29T17:42:23.998Z,84.55
2023-06-29T17:45:10.090Z,85.00
2023-06-29T17:47:42.845Z,84.90
2023-06-29T17:50:28.235Z,84.77
2023-06-29T17:53:00.870Z,84.44
2023-06-29T17:55:33.253Z,84.53
2023-06-29T17:58:05.689Z,85.05
2023-06-29T18:00:48.033Z,85.52
2023-06-29T18:03:21.191Z,85.30
2023-06-29T18:05:55.690Z,85.35
2023-06-29T18:08:40.533Z,85.86
2023-06-29T18:11:22.812Z,86.56
2023-06-29T18:13:55.553Z,86.33
2023-06-29T18:16:40.459Z,86.40
2023-06-29T18:19:22.969Z,85.85
2023-06-29T18:21:55.747Z,85.75
2023-06-29T18:24:39.856Z,85.76
2023-06-29T18:27:12.444Z,85.71
2023-06-29T18:29:56.684Z,85.96
2023-06-29T18:32:29.626Z,85.94
2023-06-29T18:35:13.583Z,86.08
2023-06-29T18:37:56.040Z,86.42
2023-06-29T18:40:29.714Z,85.99
2023-06-29T18:43:15.100Z,85.57
2023-06-29T18:45:58.874Z,85.85
2023-06-29T18:48:41.344Z,85.68
2023-06-29T18:51:13.920Z,85.34
2023-06-29T18:53:57.890Z,85.12
2023-06-29T18:56:30.613Z,84.32
2023-06-29T18:59:15.811Z,84.38
2023-06-29T19:01:48.484Z,84.06
2023-06-29T19:04:33.748Z,84.15
2023-06-29T19:07:17.866Z,83.96
2023-06-29T19:10:02.358Z,83.41
2023-06-29T19:12:35.148Z,83.08
2023-06-29T19:15:20.743Z,82.76
2023-06-29T19:17:53.332Z,81.98
2023-06-29T19:20:37.394Z,81.97
2023-06-29T19:23:10.124Z,81.42
2023-06-29T19:25:43.136Z,80.85
2023-06-29T19:28:27.618Z,81.09
2023-06-29T19:31:00.452Z,80.29
2023-06-29T19:33:44.394Z,80.47
2023-06-29T19:36:17.181Z,79.70
2023-06-29T19:38:59.958Z,79.87
2023-06-29T19:41:33.005Z,78.83
2023-06-29T19:44:15.435Z,78.98
2023-06-29T19:47:00.242Z,78.60
2023-06-29T19:49:33.129Z,78.07
2023-06-29T19:52:17.596Z,78.53
2023-06-29T19:54:50.475Z,77.82
2023-06-29T19:57:35.062Z,78.07
2023-06-29T20:00:09.528Z,77.05
2023-06-29T20:03:05.854Z,77.53
2023-06-29T20:05:38.496Z,76.57
2023-06-29T20:08:22.734Z,76.64
2023-06-29T20:10:55.232Z,75.87
2023-06-29T20:13:39.165Z,76.16
2023-06-29T20:16:11.640Z,75.75
2023-06-29T20:18:55.880Z,76.13
2023-06-29T20:21:28.931Z,75.46
2023-06-29T20:24:14.728Z,75.81
2023-06-29T20:26:48.417Z,75.10
2023-06-29T20:29:32.590Z,75.20
2023-06-29T20:32:17.101Z,74.94
2023-06-29T20:34:49.931Z,74.24
2023-06-29T20:37:32.408Z,74.57
2023-06-29T20:40:16.569Z,74.45
2023-06-29T20:42:49.328Z,73.73
2023-06-29T20:45:31.456Z,74.07
2023-06-29T20:48:14.336Z,73.84
2023-06-29T20:50:46.739Z,72.97
2023-06-29T20:53:31.971Z,73.54
2023-06-29T20:56:04.950Z,72.70
2023-06-29T20:58:47.799Z,72.48
2023-06-29T21:01:20.754Z,72.13
2023-06-29T21:04:10.685Z,73.10
2023-06-29T21:06:53.051Z,73.23
2023-06-29T21:09:25.706Z,72.56
2023-06-29T21:12:10.870Z,72.91
2023-06-29T21:14:44.297Z,72.61
2023-06-29T21:17:26.803Z,73.06
2023-06-29T21:19:59.760Z,72.62
2023-06-29T21:22:45.591Z,73.12
2023-06-29T21:25:28.850Z,73.55
2023-06-29T21:28:01.642Z,73.33
2023-06-29T21:30:37.613Z,73.18
2023-06-29T21:33:23.306Z,73.81
2023-06-29T21:36:07.635Z,74.00
2023-06-29T21:38:51.305Z,74.14
2023-06-29T21:41:23.879Z,73.99
2023-06-29T21:44:06.289Z,74.73
2023-06-29T21:46:39.163Z,74.63
2023-06-29T21:49:23.843Z,75.29
2023-06-29T21:52:09.973Z,75.55
2023-06-29T21:54:43.026Z,76.56
2023-06-29T21:57:44.983Z,76.69
2023-06-29T22:00:18.277Z,76.07
2023-06-29T22:02:59.744Z,76.28
2023-06-29T22:05:44.526Z,76.30
2023-06-29T22:08:23.187Z,75.84
2023-06-29T22:11:06.369Z,76.12
2023-06-29T22:13:39.195Z,75.87
2023-06-29T22:16:21.852Z,76.67
2023-06-29T22:18:54.473Z,76.24
2023-06-29T22:21:37.410Z,76.43
2023-06-29T22:24:21.154Z,76.40
2023-06-29T22:26:53.570Z,75.83
2023-06-29T22:29:37.325Z,76.42
2023-06-29T22:32:19.748Z,76.18
2023-06-29T22:35:05.337Z,76.24
2023-06-29T22:37:37.825Z,75.78
2023-06-29T22:40:21.769Z,76.34
2023-06-29T22:42:54.556Z,75.77
2023-06-29T22:45:36.911Z,76.10
2023-06-29T22:48:09.841Z,75.54
2023-06-29T22:50:43.298Z,75.53
2023-06-29T22:53:26.634Z,76.02
2023-06-29T22:55:59.282Z,75.68
2023-06-29T22:58:43.794Z,76.27
2023-06-29T23:01:26.498Z,76.52
2023-06-29T23:03:59.092Z,76.13
2023-06-29T23:06:41.960Z,76.61
2023-06-29T23:09:14.626Z,76.27
2023-06-29T23:12:00.149Z,76.64
2023-06-29T23:14:44.273Z,76.56
2023-06-29T23:17:28.318Z,76.60
2023-06-29T23:20:14.465Z,76.79
2023-06-29T23:22:47.337Z,76.87
2023-06-29T23:25:33.185Z,76.67
2023-06-29T23:28:05.970Z,75.50
2023-06-29T23:30:48.730Z,76.34
2023-06-29T23:33:31.333Z,76.57
2023-06-29T23:36:04.387Z,76.34
2023-06-29T23:38:51.444Z,77.04
2023-06-29T23:41:28.095Z,76.78
2023-06-29T23:44:06.634Z,77.34
2023-06-29T23:46:50.987Z,77.34
2023-06-29T23:49:38.571Z,77.52
2023-06-29T23:52:11.549Z,78.23
2023-06-29T23:54:56.366Z,78.19
2023-06-29T23:57:28.965Z,77.55
